sensor_id;sensor_type;location;lat;lon;timestamp;pressure;altitude;pressure_sealevel;temperature;humidity
28312;BME280;15572;48.810;9.148;2022-10-16T00:01:10;98018.25;;;15.86;100.00
28312;BME280;15572;48.810;9.148;2022-10-16T00:06:07;98011.69;;;15.87;100.00
28312;BME280;15572;48.810;9.148;2022-10-16T00:11:07;98012.78;;;15.86;100.00
28312;BME280;15572;48.810;9.148;2022-10-16T00:16:04;98007.56;;;15.85;100.00
28312;BME280;15572;48.810;9.148;2022-10-16T00:21:04;98018.69;;;15.83;100.00
28312;BME280;15572;48.810;9.148;2022-10-16T00:26:03;98011.31;;;15.72;100.00
28312;BME280;15572;48.810;9.148;2022-10-16T00:31:03;98007.47;;;15.62;100.00
28312;BME280;15572;48.810;9.148;2022-10-16T00:36:00;98013.66;;;15.57;100.00
28312;BME280;15572;48.810;9.148;2022-10-16T00:40:59;98016.00;;;15.53;100.00
28312;BME280;15572;48.810;9.148;2022-10-16T00:45:55;98018.81;;;15.47;100.00
28312;BME280;15572;48.810;9.148;2022-10-16T00:50:52;98025.78;;;15.43;100.00
28312;BME280;15572;48.810;9.148;2022-10-16T00:55:49;98017.59;;;15.43;100.00
28312;BME280;15572;48.810;9.148;2022-10-16T01:00:47;98022.22;;;15.42;100.00
28312;BME280;15572;48.810;9.148;2022-10-16T01:05:49;98028.88;;;15.46;100.00
28312;BME280;15572;48.810;9.148;2022-10-16T01:10:52;98023.38;;;15.53;100.00
28312;BME280;15572;48.810;9.148;2022-10-16T01:15:56;98038.06;;;15.52;100.00
28312;BME280;15572;48.810;9.148;2022-10-16T01:20:59;98033.22;;;15.54;100.00
28312;BME280;15572;48.810;9.148;2022-10-16T01:26:11;98034.09;;;15.48;100.00
28312;BME280;15572;48.810;9.148;2022-10-16T01:31:15;98036.22;;;15.46;100.00
28312;BME280;15572;48.810;9.148;2022-10-16T01:36:16;98027.69;;;15.42;100.00
28312;BME280;15572;48.810;9.148;2022-10-16T01:41:17;98020.56;;;15.41;100.00
28312;BME280;15572;48.810;9.148;2022-10-16T01:46:18;98033.34;;;15.41;100.00
28312;BME280;15572;48.810;9.148;2022-10-16T01:51:17;98021.38;;;15.42;100.00
28312;BME280;15572;48.810;9.148;2022-10-16T01:56:17;98026.84;;;15.42;100.00
28312;BME280;15572;48.810;9.148;2022-10-16T02:01:19;98026.00;;;15.41;100.00
28312;BME280;15572;48.810;9.148;2022-10-16T02:06:18;98016.78;;;15.42;100.00
28312;BME280;15572;48.810;9.148;2022-10-16T02:11:14;98014.63;;;15.44;100.00
28312;BME280;15572;48.810;9.148;2022-10-16T02:16:11;98027.44;;;15.44;100.00
28312;BME280;15572;48.810;9.148;2022-10-16T02:21:14;98019.50;;;15.42;100.00
28312;BME280;15572;48.810;9.148;2022-10-16T02:26:15;98032.31;;;15.42;100.00
28312;BME280;15572;48.810;9.148;2022-10-16T02:31:18;98017.00;;;15.41;100.00
28312;BME280;15572;48.810;9.148;2022-10-16T02:36:19;98015.56;;;15.38;100.00
28312;BME280;15572;48.810;9.148;2022-10-16T02:41:16;98022.09;;;15.37;100.00
28312;BME280;15572;48.810;9.148;2022-10-16T02:46:12;98014.97;;;15.36;100.00
28312;BME280;15572;48.810;9.148;2022-10-16T02:51:09;98027.75;;;15.36;100.00
28312;BME280;15572;48.810;9.148;2022-10-16T02:56:07;98032.84;;;15.32;100.00
28312;BME280;15572;48.810;9.148;2022-10-16T03:01:04;98036.63;;;15.31;100.00
28312;BME280;15572;48.810;9.148;2022-10-16T03:06:00;98032.47;;;15.29;100.00
28312;BME280;15572;48.810;9.148;2022-10-16T03:10:57;98041.72;;;15.28;100.00
28312;BME280;15572;48.810;9.148;2022-10-16T03:15:55;98033.16;;;15.24;100.00
28312;BME280;15572;48.810;9.148;2022-10-16T03:20:52;98040.97;;;15.21;100.00
28312;BME280;15572;48.810;9.148;2022-10-16T03:25:48;98042.72;;;15.15;100.00
28312;BME280;15572;48.810;9.148;2022-10-16T03:30:45;98042.38;;;15.11;100.00
28312;BME280;15572;48.810;9.148;2022-10-16T03:35:50;98033.09;;;15.12;100.00
28312;BME280;15572;48.810;9.148;2022-10-16T03:40:47;98033.78;;;15.08;100.00
28312;BME280;15572;48.810;9.148;2022-10-16T03:45:44;98034.41;;;15.10;100.00
28312;BME280;15572;48.810;9.148;2022-10-16T03:50:40;98044.47;;;15.09;100.00
28312;BME280;15572;48.810;9.148;2022-10-16T03:55:41;98040.56;;;15.05;100.00
28312;BME280;15572;48.810;9.148;2022-10-16T04:00:40;98051.66;;;15.04;100.00
28312;BME280;15572;48.810;9.148;2022-10-16T04:05:37;98042.66;;;15.03;100.00
28312;BME280;15572;48.810;9.148;2022-10-16T04:10:33;98047.75;;;15.00;100.00
28312;BME280;15572;48.810;9.148;2022-10-16T04:15:31;98051.75;;;14.97;100.00
28312;BME280;15572;48.810;9.148;2022-10-16T04:20:27;98046.38;;;14.91;100.00
28312;BME280;15572;48.810;9.148;2022-10-16T04:25:25;98045.56;;;14.90;100.00
28312;BME280;15572;48.810;9.148;2022-10-16T04:30:22;98040.69;;;14.92;100.00
28312;BME280;15572;48.810;9.148;2022-10-16T04:35:21;98041.31;;;14.94;100.00
28312;BME280;15572;48.810;9.148;2022-10-16T04:40:17;98055.53;;;14.96;100.00
28312;BME280;15572;48.810;9.148;2022-10-16T04:45:14;98057.66;;;14.94;100.00
28312;BME280;15572;48.810;9.148;2022-10-16T04:50:11;98070.44;;;14.94;100.00
28312;BME280;15572;48.810;9.148;2022-10-16T04:55:09;98074.03;;;14.94;100.00
28312;BME280;15572;48.810;9.148;2022-10-16T05:00:06;98075.06;;;14.93;100.00
28312;BME280;15572;48.810;9.148;2022-10-16T05:05:04;98087.03;;;14.92;100.00
28312;BME280;15572;48.810;9.148;2022-10-16T05:10:00;98088.09;;;14.91;100.00
28312;BME280;15572;48.810;9.148;2022-10-16T05:14:58;98076.34;;;14.91;100.00
28312;BME280;15572;48.810;9.148;2022-10-16T05:19:55;98071.72;;;14.91;100.00
28312;BME280;15572;48.810;9.148;2022-10-16T05:24:51;98079.91;;;14.91;100.00
28312;BME280;15572;48.810;9.148;2022-10-16T05:29:48;98079.69;;;14.93;100.00
28312;BME280;15572;48.810;9.148;2022-10-16T05:34:46;98075.69;;;14.95;100.00
28312;BME280;15572;48.810;9.148;2022-10-16T05:39:43;98084.31;;;14.92;100.00
28312;BME280;15572;48.810;9.148;2022-10-16T05:44:39;98090.66;;;14.86;100.00
28312;BME280;15572;48.810;9.148;2022-10-16T05:49:36;98093.00;;;14.83;100.00
28312;BME280;15572;48.810;9.148;2022-10-16T05:54:34;98094.91;;;14.82;100.00
28312;BME280;15572;48.810;9.148;2022-10-16T05:59:30;98103.44;;;14.86;100.00
28312;BME280;15572;48.810;9.148;2022-10-16T06:04:27;98116.16;;;14.92;100.00
28312;BME280;15572;48.810;9.148;2022-10-16T06:09:24;98116.78;;;14.94;100.00
28312;BME280;15572;48.810;9.148;2022-10-16T06:14:21;98122.41;;;14.99;100.00
28312;BME280;15572;48.810;9.148;2022-10-16T06:19:18;98126.69;;;15.06;100.00
28312;BME280;15572;48.810;9.148;2022-10-16T06:24:15;98126.47;;;15.08;100.00
28312;BME280;15572;48.810;9.148;2022-10-16T06:29:11;98128.38;;;15.07;100.00
28312;BME280;15572;48.810;9.148;2022-10-16T06:34:10;98133.59;;;15.09;100.00
28312;BME280;15572;48.810;9.148;2022-10-16T06:39:06;98131.50;;;15.11;100.00
28312;BME280;15572;48.810;9.148;2022-10-16T06:44:05;98139.22;;;15.14;100.00
28312;BME280;15572;48.810;9.148;2022-10-16T06:49:01;98150.25;;;15.19;100.00
28312;BME280;15572;48.810;9.148;2022-10-16T06:53:59;98157.75;;;15.24;100.00
28312;BME280;15572;48.810;9.148;2022-10-16T06:58:56;98160.41;;;15.30;100.00
28312;BME280;15572;48.810;9.148;2022-10-16T07:03:53;98165.13;;;15.41;100.00
28312;BME280;15572;48.810;9.148;2022-10-16T07:08:50;98178.03;;;15.52;100.00
28312;BME280;15572;48.810;9.148;2022-10-16T07:13:49;98189.59;;;15.66;100.00
28312;BME280;15572;48.810;9.148;2022-10-16T07:18:46;98186.19;;;15.71;100.00
28312;BME280;15572;48.810;9.148;2022-10-16T07:23:44;98197.50;;;15.74;100.00
28312;BME280;15572;48.810;9.148;2022-10-16T07:28:42;98203.53;;;15.76;100.00
28312;BME280;15572;48.810;9.148;2022-10-16T07:33:42;98212.41;;;15.72;100.00
28312;BME280;15572;48.810;9.148;2022-10-16T07:38:39;98217.66;;;15.73;100.00
28312;BME280;15572;48.810;9.148;2022-10-16T07:43:37;98210.91;;;15.76;100.00
28312;BME280;15572;48.810;9.148;2022-10-16T07:48:34;98210.94;;;15.87;100.00
28312;BME280;15572;48.810;9.148;2022-10-16T07:53:32;98228.59;;;16.03;100.00
28312;BME280;15572;48.810;9.148;2022-10-16T07:58:30;98226.06;;;16.20;100.00
28312;BME280;15572;48.810;9.148;2022-10-16T08:03:26;98230.03;;;16.35;100.00
28312;BME280;15572;48.810;9.148;2022-10-16T08:08:25;98228.06;;;16.54;100.00
28312;BME280;15572;48.810;9.148;2022-10-16T08:13:23;98232.19;;;16.75;100.00
28312;BME280;15572;48.810;9.148;2022-10-16T08:18:19;98240.91;;;16.95;100.00
28312;BME280;15572;48.810;9.148;2022-10-16T08:23:16;98239.63;;;17.09;100.00
28312;BME280;15572;48.810;9.148;2022-10-16T08:28:12;98244.63;;;17.24;100.00
28312;BME280;15572;48.810;9.148;2022-10-16T08:33:10;98268.41;;;17.35;100.00
28312;BME280;15572;48.810;9.148;2022-10-16T08:38:07;98262.66;;;17.37;100.00
28312;BME280;15572;48.810;9.148;2022-10-16T08:43:24;98267.56;;;17.46;100.00
28312;BME280;15572;48.810;9.148;2022-10-16T08:48:29;98259.72;;;17.61;100.00
28312;BME280;15572;48.810;9.148;2022-10-16T08:53:30;98264.94;;;17.75;100.00
28312;BME280;15572;48.810;9.148;2022-10-16T08:58:29;98266.13;;;17.79;100.00
28312;BME280;15572;48.810;9.148;2022-10-16T09:09:11;98259.66;;;17.96;100.00
28312;BME280;15572;48.810;9.148;2022-10-16T09:14:19;98271.41;;;18.08;100.00
28312;BME280;15572;48.810;9.148;2022-10-16T09:19:27;98263.72;;;18.22;100.00
28312;BME280;15572;48.810;9.148;2022-10-16T09:24:26;98279.59;;;18.20;100.00
28312;BME280;15572;48.810;9.148;2022-10-16T09:29:24;98286.50;;;18.23;100.00
28312;BME280;15572;48.810;9.148;2022-10-16T09:34:30;98291.84;;;18.29;100.00
28312;BME280;15572;48.810;9.148;2022-10-16T09:39:31;98294.44;;;18.36;100.00
28312;BME280;15572;48.810;9.148;2022-10-16T09:44:40;98289.75;;;18.48;100.00
28312;BME280;15572;48.810;9.148;2022-10-16T09:49:38;98288.63;;;18.61;100.00
28312;BME280;15572;48.810;9.148;2022-10-16T09:54:35;98293.31;;;18.77;100.00
28312;BME280;15572;48.810;9.148;2022-10-16T09:59:32;98307.06;;;18.93;100.00
28312;BME280;15572;48.810;9.148;2022-10-16T10:04:40;98318.53;;;19.07;100.00
28312;BME280;15572;48.810;9.148;2022-10-16T10:09:38;98321.97;;;19.14;100.00
28312;BME280;15572;48.810;9.148;2022-10-16T10:14:37;98327.63;;;19.24;100.00
28312;BME280;15572;48.810;9.148;2022-10-16T10:19:40;98325.47;;;19.43;100.00
28312;BME280;15572;48.810;9.148;2022-10-16T10:24:37;98330.56;;;19.68;100.00
28312;BME280;15572;48.810;9.148;2022-10-16T10:29:47;98319.84;;;19.88;100.00
28312;BME280;15572;48.810;9.148;2022-10-16T10:35:02;98317.06;;;20.05;100.00
28312;BME280;15572;48.810;9.148;2022-10-16T10:40:07;98315.00;;;20.34;100.00
28312;BME280;15572;48.810;9.148;2022-10-16T10:45:18;98327.44;;;20.63;100.00
28312;BME280;15572;48.810;9.148;2022-10-16T10:50:23;98324.81;;;20.73;100.00
28312;BME280;15572;48.810;9.148;2022-10-16T10:55:27;98322.75;;;20.85;100.00
28312;BME280;15572;48.810;9.148;2022-10-16T11:00:28;98331.00;;;20.85;100.00
28312;BME280;15572;48.810;9.148;2022-10-16T11:05:38;98329.28;;;20.79;96.71
28312;BME280;15572;48.810;9.148;2022-10-16T11:10:42;98313.00;;;20.73;94.90
28312;BME280;15572;48.810;9.148;2022-10-16T11:15:43;98317.59;;;20.67;97.58
28312;BME280;15572;48.810;9.148;2022-10-16T11:20:48;98318.75;;;20.98;93.77
28312;BME280;15572;48.810;9.148;2022-10-16T11:25:46;98317.00;;;21.46;84.62
28312;BME280;15572;48.810;9.148;2022-10-16T11:30:47;98313.78;;;21.59;86.79
28312;BME280;15572;48.810;9.148;2022-10-16T11:35:52;98322.94;;;21.69;85.85
28312;BME280;15572;48.810;9.148;2022-10-16T11:40:52;98309.78;;;21.76;86.83
28312;BME280;15572;48.810;9.148;2022-10-16T11:45:54;98306.63;;;21.95;85.37
28312;BME280;15572;48.810;9.148;2022-10-16T11:50:54;98307.78;;;22.04;85.24
28312;BME280;15572;48.810;9.148;2022-10-16T11:55:52;98314.81;;;22.32;84.03
28312;BME280;15572;48.810;9.148;2022-10-16T12:00:55;98299.16;;;22.52;76.75
28312;BME280;15572;48.810;9.148;2022-10-16T12:06:04;98294.00;;;22.76;72.59
28312;BME280;15572;48.810;9.148;2022-10-16T12:11:07;98294.50;;;22.63;73.83
28312;BME280;15572;48.810;9.148;2022-10-16T12:16:20;98291.69;;;22.48;75.98
28312;BME280;15572;48.810;9.148;2022-10-16T12:21:30;98292.19;;;22.35;76.49
28312;BME280;15572;48.810;9.148;2022-10-16T12:26:28;98297.16;;;22.28;75.14
28312;BME280;15572;48.810;9.148;2022-10-16T12:31:37;98313.13;;;22.25;77.63
28312;BME280;15572;48.810;9.148;2022-10-16T12:36:36;98306.84;;;22.45;76.83
28312;BME280;15572;48.810;9.148;2022-10-16T12:41:34;98299.47;;;22.66;73.56
28312;BME280;15572;48.810;9.148;2022-10-16T12:46:37;98303.34;;;22.70;69.76
28312;BME280;15572;48.810;9.148;2022-10-16T12:51:36;98301.91;;;22.52;70.06
28312;BME280;15572;48.810;9.148;2022-10-16T12:56:43;98313.25;;;22.61;71.77
28312;BME280;15572;48.810;9.148;2022-10-16T13:01:56;98317.38;;;22.58;72.10
28312;BME280;15572;48.810;9.148;2022-10-16T13:07:07;98311.88;;;22.58;73.04
28312;BME280;15572;48.810;9.148;2022-10-16T13:12:20;98318.25;;;22.69;74.09
28312;BME280;15572;48.810;9.148;2022-10-16T13:17:25;98317.47;;;22.74;75.09
28312;BME280;15572;48.810;9.148;2022-10-16T13:22:32;98322.72;;;22.75;75.41
28312;BME280;15572;48.810;9.148;2022-10-16T13:27:37;98318.31;;;22.79;77.07
28312;BME280;15572;48.810;9.148;2022-10-16T13:32:36;98309.75;;;22.76;77.92
28312;BME280;15572;48.810;9.148;2022-10-16T13:37:34;98319.66;;;22.72;79.33
28312;BME280;15572;48.810;9.148;2022-10-16T13:42:32;98321.81;;;22.59;80.43
28312;BME280;15572;48.810;9.148;2022-10-16T13:47:29;98317.63;;;22.52;81.27
28312;BME280;15572;48.810;9.148;2022-10-16T13:52:26;98322.34;;;22.56;81.44
28312;BME280;15572;48.810;9.148;2022-10-16T13:57:24;98312.16;;;22.67;81.07
28312;BME280;15572;48.810;9.148;2022-10-16T14:02:25;98312.13;;;22.52;81.96
28312;BME280;15572;48.810;9.148;2022-10-16T14:07:24;98314.00;;;22.41;81.61
28312;BME280;15572;48.810;9.148;2022-10-16T14:12:24;98314.22;;;22.30;81.95
28312;BME280;15572;48.810;9.148;2022-10-16T14:17:22;98313.94;;;22.26;81.23
28312;BME280;15572;48.810;9.148;2022-10-16T14:22:27;98316.72;;;22.26;81.74
28312;BME280;15572;48.810;9.148;2022-10-16T14:27:31;98316.94;;;22.19;81.14
28312;BME280;15572;48.810;9.148;2022-10-16T14:32:27;98312.50;;;22.13;81.55
28312;BME280;15572;48.810;9.148;2022-10-16T14:37:27;98325.97;;;22.05;83.80
28312;BME280;15572;48.810;9.148;2022-10-16T14:42:24;98325.13;;;21.99;85.45
28312;BME280;15572;48.810;9.148;2022-10-16T14:47:25;98322.34;;;21.99;86.65
28312;BME280;15572;48.810;9.148;2022-10-16T14:52:22;98329.81;;;22.04;86.55
28312;BME280;15572;48.810;9.148;2022-10-16T14:57:21;98325.09;;;21.94;87.93
28312;BME280;15572;48.810;9.148;2022-10-16T15:02:26;98331.34;;;21.84;89.10
28312;BME280;15572;48.810;9.148;2022-10-16T15:07:24;98332.97;;;21.85;89.01
28312;BME280;15572;48.810;9.148;2022-10-16T15:12:20;98331.88;;;21.87;89.17
28312;BME280;15572;48.810;9.148;2022-10-16T15:17:17;98328.31;;;21.91;89.48
28312;BME280;15572;48.810;9.148;2022-10-16T15:22:15;98326.13;;;21.88;90.16
28312;BME280;15572;48.810;9.148;2022-10-16T15:27:11;98325.16;;;21.67;90.96
28312;BME280;15572;48.810;9.148;2022-10-16T15:32:09;98327.22;;;21.50;92.52
28312;BME280;15572;48.810;9.148;2022-10-16T15:37:05;98329.69;;;21.47;93.10
28312;BME280;15572;48.810;9.148;2022-10-16T15:42:03;98329.56;;;21.31;94.39
28312;BME280;15572;48.810;9.148;2022-10-16T15:47:01;98330.22;;;21.17;95.31
28312;BME280;15572;48.810;9.148;2022-10-16T15:51:57;98326.00;;;21.09;96.27
28312;BME280;15572;48.810;9.148;2022-10-16T15:56:54;98336.03;;;20.93;97.26
28312;BME280;15572;48.810;9.148;2022-10-16T16:01:51;98339.19;;;20.80;98.13
28312;BME280;15572;48.810;9.148;2022-10-16T16:06:48;98337.94;;;20.66;99.18
28312;BME280;15572;48.810;9.148;2022-10-16T16:11:45;98331.94;;;20.47;100.00
28312;BME280;15572;48.810;9.148;2022-10-16T16:16:41;98339.06;;;20.27;100.00
28312;BME280;15572;48.810;9.148;2022-10-16T16:21:39;98334.63;;;20.04;100.00
28312;BME280;15572;48.810;9.148;2022-10-16T16:26:36;98340.59;;;19.79;100.00
28312;BME280;15572;48.810;9.148;2022-10-16T16:31:34;98346.88;;;19.58;100.00
28312;BME280;15572;48.810;9.148;2022-10-16T16:36:32;98351.41;;;19.35;100.00
28312;BME280;15572;48.810;9.148;2022-10-16T16:41:30;98347.25;;;19.16;100.00
28312;BME280;15572;48.810;9.148;2022-10-16T16:46:26;98352.38;;;18.96;100.00
28312;BME280;15572;48.810;9.148;2022-10-16T16:51:23;98361.41;;;18.80;100.00
28312;BME280;15572;48.810;9.148;2022-10-16T16:56:20;98359.91;;;18.61;100.00
28312;BME280;15572;48.810;9.148;2022-10-16T17:01:19;98367.81;;;18.45;100.00
28312;BME280;15572;48.810;9.148;2022-10-16T17:06:15;98377.13;;;18.33;100.00
28312;BME280;15572;48.810;9.148;2022-10-16T17:11:13;98380.03;;;18.15;100.00
28312;BME280;15572;48.810;9.148;2022-10-16T17:16:11;98385.16;;;17.99;100.00
28312;BME280;15572;48.810;9.148;2022-10-16T17:21:09;98380.75;;;17.87;100.00
28312;BME280;15572;48.810;9.148;2022-10-16T17:26:08;98392.78;;;17.74;100.00
28312;BME280;15572;48.810;9.148;2022-10-16T17:31:08;98393.69;;;17.56;100.00
28312;BME280;15572;48.810;9.148;2022-10-16T17:36:05;98395.81;;;17.43;100.00
28312;BME280;15572;48.810;9.148;2022-10-16T17:41:11;98399.13;;;17.33;100.00
28312;BME280;15572;48.810;9.148;2022-10-16T17:46:09;98412.75;;;17.21;100.00
28312;BME280;15572;48.810;9.148;2022-10-16T17:51:07;98415.25;;;17.11;100.00
28312;BME280;15572;48.810;9.148;2022-10-16T17:56:04;98427.59;;;17.02;100.00
28312;BME280;15572;48.810;9.148;2022-10-16T18:01:11;98425.28;;;16.88;100.00
28312;BME280;15572;48.810;9.148;2022-10-16T18:06:07;98422.47;;;16.76;100.00
28312;BME280;15572;48.810;9.148;2022-10-16T18:11:04;98424.09;;;16.65;100.00
28312;BME280;15572;48.810;9.148;2022-10-16T18:16:04;98436.97;;;16.58;100.00
28312;BME280;15572;48.810;9.148;2022-10-16T18:21:06;98438.13;;;16.51;100.00
28312;BME280;15572;48.810;9.148;2022-10-16T18:26:05;98445.56;;;16.43;100.00
28312;BME280;15572;48.810;9.148;2022-10-16T18:31:06;98448.56;;;16.35;100.00
28312;BME280;15572;48.810;9.148;2022-10-16T18:36:04;98450.31;;;16.30;100.00
28312;BME280;15572;48.810;9.148;2022-10-16T18:41:01;98452.88;;;16.25;100.00
28312;BME280;15572;48.810;9.148;2022-10-16T18:46:01;98458.09;;;16.08;100.00
28312;BME280;15572;48.810;9.148;2022-10-16T18:51:07;98467.44;;;16.00;100.00
28312;BME280;15572;48.810;9.148;2022-10-16T18:56:05;98470.69;;;15.91;100.00
28312;BME280;15572;48.810;9.148;2022-10-16T19:01:03;98472.63;;;15.84;100.00
28312;BME280;15572;48.810;9.148;2022-10-16T19:06:01;98475.25;;;15.72;100.00
28312;BME280;15572;48.810;9.148;2022-10-16T19:11:02;98470.91;;;15.65;100.00
28312;BME280;15572;48.810;9.148;2022-10-16T19:15:59;98476.59;;;15.63;100.00
28312;BME280;15572;48.810;9.148;2022-10-16T19:21:00;98481.19;;;15.63;100.00
28312;BME280;15572;48.810;9.148;2022-10-16T19:26:02;98490.66;;;15.60;100.00
28312;BME280;15572;48.810;9.148;2022-10-16T19:31:00;98486.28;;;15.59;100.00
28312;BME280;15572;48.810;9.148;2022-10-16T19:36:06;98489.59;;;15.61;100.00
28312;BME280;15572;48.810;9.148;2022-10-16T19:41:08;98495.50;;;15.58;100.00
28312;BME280;15572;48.810;9.148;2022-10-16T19:46:06;98496.56;;;15.57;100.00
28312;BME280;15572;48.810;9.148;2022-10-16T19:51:03;98493.66;;;15.52;100.00
28312;BME280;15572;48.810;9.148;2022-10-16T19:56:00;98499.53;;;15.49;100.00
28312;BME280;15572;48.810;9.148;2022-10-16T20:00:58;98510.91;;;15.39;100.00
28312;BME280;15572;48.810;9.148;2022-10-16T20:05:55;98515.34;;;15.34;100.00
28312;BME280;15572;48.810;9.148;2022-10-16T20:10:53;98519.38;;;15.31;100.00
28312;BME280;15572;48.810;9.148;2022-10-16T20:15:50;98527.16;;;15.28;100.00
28312;BME280;15572;48.810;9.148;2022-10-16T20:20:48;98538.28;;;15.26;100.00
28312;BME280;15572;48.810;9.148;2022-10-16T20:25:46;98538.50;;;15.25;100.00
28312;BME280;15572;48.810;9.148;2022-10-16T20:30:44;98544.78;;;15.25;100.00
28312;BME280;15572;48.810;9.148;2022-10-16T20:35:44;98553.81;;;15.26;100.00
28312;BME280;15572;48.810;9.148;2022-10-16T20:41:01;98559.91;;;15.28;100.00
28312;BME280;15572;48.810;9.148;2022-10-16T20:46:08;98563.25;;;15.23;100.00
28312;BME280;15572;48.810;9.148;2022-10-16T20:51:11;98575.66;;;15.19;100.00
28312;BME280;15572;48.810;9.148;2022-10-16T20:56:10;98576.69;;;15.18;100.00
28312;BME280;15572;48.810;9.148;2022-10-16T21:01:12;98588.06;;;15.15;100.00
28312;BME280;15572;48.810;9.148;2022-10-16T21:06:09;98591.63;;;15.09;100.00
28312;BME280;15572;48.810;9.148;2022-10-16T21:11:12;98586.00;;;14.97;100.00
28312;BME280;15572;48.810;9.148;2022-10-16T21:16:10;98603.19;;;15.04;100.00
28312;BME280;15572;48.810;9.148;2022-10-16T21:21:07;98599.84;;;14.96;100.00
28312;BME280;15572;48.810;9.148;2022-10-16T21:26:06;98603.06;;;14.80;100.00
28312;BME280;15572;48.810;9.148;2022-10-16T21:31:11;98605.38;;;14.69;100.00
28312;BME280;15572;48.810;9.148;2022-10-16T21:36:12;98614.44;;;14.63;100.00
28312;BME280;15572;48.810;9.148;2022-10-16T21:41:16;98610.44;;;14.59;100.00
28312;BME280;15572;48.810;9.148;2022-10-16T21:46:18;98607.72;;;14.53;100.00
28312;BME280;15572;48.810;9.148;2022-10-16T21:51:15;98597.88;;;14.39;100.00
28312;BME280;15572;48.810;9.148;2022-10-16T21:56:12;98598.94;;;14.31;100.00
28312;BME280;15572;48.810;9.148;2022-10-16T22:01:11;98602.69;;;14.23;100.00
28312;BME280;15572;48.810;9.148;2022-10-16T22:06:11;98603.31;;;14.25;100.00
28312;BME280;15572;48.810;9.148;2022-10-16T22:11:10;98609.16;;;14.16;100.00
28312;BME280;15572;48.810;9.148;2022-10-16T22:16:07;98612.13;;;14.14;100.00
28312;BME280;15572;48.810;9.148;2022-10-16T22:21:04;98618.59;;;14.07;100.00
28312;BME280;15572;48.810;9.148;2022-10-16T22:26:04;98619.00;;;13.97;100.00
28312;BME280;15572;48.810;9.148;2022-10-16T22:31:02;98625.47;;;13.89;100.00
28312;BME280;15572;48.810;9.148;2022-10-16T22:36:00;98620.44;;;13.80;100.00
28312;BME280;15572;48.810;9.148;2022-10-16T22:41:00;98627.34;;;13.76;100.00
28312;BME280;15572;48.810;9.148;2022-10-16T22:46:02;98619.81;;;13.71;100.00
28312;BME280;15572;48.810;9.148;2022-10-16T22:50:59;98609.56;;;13.67;100.00
28312;BME280;15572;48.810;9.148;2022-10-16T22:55:56;98616.22;;;13.58;100.00
28312;BME280;15572;48.810;9.148;2022-10-16T23:00:53;98627.91;;;13.52;100.00
28312;BME280;15572;48.810;9.148;2022-10-16T23:05:51;98622.44;;;13.38;100.00
28312;BME280;15572;48.810;9.148;2022-10-16T23:10:47;98615.94;;;13.33;100.00
28312;BME280;15572;48.810;9.148;2022-10-16T23:15:44;98622.03;;;13.35;100.00
28312;BME280;15572;48.810;9.148;2022-10-16T23:20:41;98635.00;;;13.39;100.00
28312;BME280;15572;48.810;9.148;2022-10-16T23:25:44;98637.03;;;13.31;100.00
28312;BME280;15572;48.810;9.148;2022-10-16T23:30:41;98643.09;;;13.26;100.00
28312;BME280;15572;48.810;9.148;2022-10-16T23:35:38;98651.06;;;13.28;100.00
28312;BME280;15572;48.810;9.148;2022-10-16T23:40:35;98653.59;;;13.29;100.00
28312;BME280;15572;48.810;9.148;2022-10-16T23:45:33;98653.75;;;13.21;100.00
28312;BME280;15572;48.810;9.148;2022-10-16T23:50:30;98663.34;;;13.17;100.00
28312;BME280;15572;48.810;9.148;2022-10-16T23:55:26;98667.88;;;13.10;100.00
